Time;durP1;ratioP1;P1;durP2;ratioP2;P2;SDS_P1;SDS_P2;PMS_P1;PMS_P2;Temp;Humidity;BMP_temperature;BMP_pressure;BME280_temperature;BME280_humidity;BME280_pressure;Samples;Min_cycle;Max_cycle;Signal;HPM_P1;HPM_P2
2021/05/02 05:41:00;;;;;;;0.80;0.70;;;;;;;19.68;53.82;101879.78;6313288;22;20026;-87
2021/05/02 05:43:25;;;;;;;2.88;0.80;;;;;;;19.70;54.28;101883.31;6331714;22;20015;-87
2021/05/02 05:45:52;;;;;;;1.80;0.80;;;;;;;19.92;53.90;101886.72;6344321;22;20439;-87
2021/05/02 05:48:18;;;;;;;0.60;0.57;;;;;;;20.16;53.21;101884.94;6316804;22;20011;-86
2021/05/02 05:50:48;;;;;;;2.92;0.70;;;;;;;19.74;54.10;101890.25;6289160;22;20007;-86
2021/05/02 05:53:16;;;;;;;1.13;0.70;;;;;;;19.09;55.55;101895.47;6316650;22;20006;-84
2021/05/02 05:55:41;;;;;;;0.85;0.65;;;;;;;19.90;54.15;101907.66;6323008;22;20041;-89
2021/05/02 05:58:08;;;;;;;0.85;0.70;;;;;;;19.19;55.58;101895.50;6322020;22;20090;-89
2021/05/02 06:00:33;;;;;;;1.20;0.65;;;;;;;19.48;54.52;101896.34;6325794;22;20034;-90
2021/05/02 06:03:01;;;;;;;1.02;0.70;;;;;;;19.16;55.43;101903.31;6323271;22;20029;-85
2021/05/02 06:05:26;;;;;;;1.10;0.70;;;;;;;20.29;52.85;101903.16;6319090;22;20058;-90
2021/05/02 06:07:51;;;;;;;0.60;0.60;;;;;;;20.27;53.14;101898.81;6342959;22;20090;-88
2021/05/02 06:10:17;;;;;;;2.33;0.50;;;;;;;20.20;53.24;101907.56;6319303;22;20422;-88
2021/05/02 06:12:42;;;;;;;0.93;0.50;;;;;;;20.75;51.93;101907.31;6344302;22;20003;-89
2021/05/02 06:15:10;;;;;;;0.85;0.60;;;;;;;21.05;50.79;101910.63;6348238;22;19999;-89
2021/05/02 06:17:36;;;;;;;0.68;0.50;;;;;;;21.35;49.58;101899.06;6333314;22;19982;-91
2021/05/02 06:20:01;;;;;;;0.70;0.60;;;;;;;21.46;49.80;101905.09;6359067;22;20003;-91
2021/05/02 06:22:27;;;;;;;0.80;0.70;;;;;;;21.22;50.17;101907.91;6318554;22;20006;-87
2021/05/02 06:24:52;;;;;;;0.47;0.40;;;;;;;20.81;52.48;101914.28;6318701;22;20349;-91
2021/05/02 06:27:18;;;;;;;0.68;0.60;;;;;;;21.57;49.79;101908.47;6342184;22;20051;-91
2021/05/02 06:29:43;;;;;;;0.70;0.60;;;;;;;21.86;49.32;101909.09;6341848;22;20006;-89
2021/05/02 06:32:09;;;;;;;0.93;0.70;;;;;;;22.11;48.31;101907.06;6342675;22;20078;-88
2021/05/02 06:34:34;;;;;;;0.63;0.60;;;;;;;22.24;47.86;101908.69;6341338;22;20117;-88
2021/05/02 06:37:00;;;;;;;0.70;0.57;;;;;;;22.26;48.41;101908.69;6341556;22;20002;-88
2021/05/02 06:39:26;;;;;;;0.82;0.60;;;;;;;22.28;48.01;101904.28;6341806;22;20359;-87
2021/05/02 06:41:52;;;;;;;0.70;0.60;;;;;;;22.39;47.65;101900.63;6313839;22;19999;-86
2021/05/02 06:44:19;;;;;;;0.47;0.47;;;;;;;22.44;46.62;101904.97;6338929;22;20019;-82
2021/05/02 06:46:44;;;;;;;3.28;0.90;;;;;;;22.44;45.39;101900.56;6311534;22;20445;-82
2021/05/02 06:49:10;;;;;;;5.68;1.98;;;;;;;22.44;43.16;101907.56;6312411;22;20009;-82
2021/05/02 06:51:37;;;;;;;27.08;7.00;;;;;;;22.15;41.02;101899.16;6338812;22;19999;-83
2021/05/02 06:54:03;;;;;;;11.70;3.60;;;;;;;21.27;44.09;101899.09;6339156;22;20010;-84
2021/05/02 06:56:29;;;;;;;9.25;3.20;;;;;;;21.76;45.04;101903.09;6312997;22;20318;-86
2021/05/02 06:58:57;;;;;;;7.55;2.67;;;;;;;21.93;44.29;101898.53;6312509;22;20018;-85
2021/05/02 07:01:23;;;;;;;6.55;2.35;;;;;;;21.80;45.66;101898.66;6312547;22;20006;-83
2021/05/02 07:03:49;;;;;;;5.65;2.25;;;;;;;21.80;44.45;101917.00;6312984;22;20002;-85
2021/05/02 07:06:15;;;;;;;6.25;2.13;;;;;;;20.45;49.07;101921.41;6338729;22;20005;-84
2021/05/02 07:08:40;;;;;;;5.55;2.13;;;;;;;19.75;50.02;101920.75;6312781;22;20003;-86
2021/05/02 07:11:05;;;;;;;5.05;2.05;;;;;;;20.03;48.11;101911.09;6340562;22;20002;-87
2021/05/02 07:13:31;;;;;;;5.97;1.90;;;;;;;19.60;48.66;101912.88;6312620;22;20026;-89
2021/05/02 07:16:00;;;;;;;5.75;1.95;;;;;;;20.45;46.52;101921.41;6312943;22;20009;-89
2021/05/02 07:18:31;;;;;;;5.10;1.90;;;;;;;20.67;46.73;101925.69;6313389;22;20314;-88
2021/05/02 07:20:56;;;;;;;5.13;1.65;;;;;;;19.73;47.25;101930.31;6313491;22;20051;-86
2021/05/02 07:23:22;;;;;;;5.93;1.50;;;;;;;19.54;47.84;101934.66;6313130;22;20090;-87
2021/05/02 07:25:48;;;;;;;5.38;1.58;;;;;;;19.50;48.08;101935.50;6312622;22;20491;-89
2021/05/02 07:28:13;;;;;;;4.60;1.65;;;;;;;19.30;48.15;101944.22;6287990;22;20007;-86
2021/05/02 07:30:39;;;;;;;3.38;1.73;;;;;;;20.24;46.18;101944.13;6287296;22;19998;-90
2021/05/02 07:33:04;;;;;;;4.88;1.50;;;;;;;19.62;47.69;101942.47;6312411;22;19995;-86
2021/05/02 07:35:30;;;;;;;2.70;1.35;;;;;;;19.30;48.34;101948.56;6312561;22;20015;-86
2021/05/02 11:26:01;;;;;;;2.47;1.53;;;;;;;18.86;56.33;102045.88;6327853;22;20053;-87
2021/05/02 11:57:45;;;;;;;2.25;1.25;;;;;;;18.75;55.47;102060.53;6350681;22;20029;-84
2021/05/02 13:31:02;;;;;;;2.55;1.20;;;;;;;18.83;54.20;102100.59;6394530;22;20022;-86
2021/05/02 13:33:53;;;;;;;2.40;1.08;;;;;;;18.87;54.18;102087.56;6313054;22;20009;-85
2021/05/02 13:47:06;;;;;;;2.95;1.40;;;;;;;18.91;54.30;102096.31;6268836;23;20023;-86
2021/05/02 13:49:40;;;;;;;2.40;1.10;;;;;;;18.88;53.88;102097.16;6240099;23;19992;-88
2021/05/02 13:52:05;;;;;;;2.20;1.00;;;;;;;18.85;53.44;102099.72;6238258;23;20077;-87
2021/05/02 13:54:31;;;;;;;2.47;1.20;;;;;;;18.89;53.47;102095.41;6213061;23;20004;-89
2021/05/02 13:56:57;;;;;;;2.05;1.00;;;;;;;18.89;53.27;102101.50;6237513;23;20455;-88
2021/05/02 14:12:50;;;;;;;2.40;1.20;;;;;;;19.01;53.57;102091.97;6264394;23;20011;-85
2021/05/02 14:37:25;;;;;;;4.95;1.10;;;;;;;18.99;55.34;102109.38;6346798;22;20060;-90
2021/05/02 14:39:50;;;;;;;5.80;1.10;;;;;;;18.95;53.79;102103.28;6316714;22;20045;-88
2021/05/02 14:42:15;;;;;;;2.08;0.90;;;;;;;19.00;55.05;102117.19;6291366;22;20011;-89
2021/05/02 14:44:41;;;;;;;2.90;1.10;;;;;;;19.05;54.18;102109.41;6291556;22;20007;-89
2021/05/02 14:47:06;;;;;;;3.72;1.02;;;;;;;19.07;54.83;102107.66;6316796;22;19999;-90
2021/05/02 14:49:34;;;;;;;3.78;1.33;;;;;;;19.07;54.56;102105.06;6289851;22;20022;-88
2021/05/02 14:51:59;;;;;;;2.25;1.10;;;;;;;19.03;54.21;102098.97;6289927;22;20425;-87
2021/05/02 14:54:24;;;;;;;1.52;1.10;;;;;;;19.06;55.34;102122.47;6290826;22;20041;-87
2021/05/02 14:56:50;;;;;;;2.47;1.08;;;;;;;19.05;53.12;102114.63;6291004;22;20059;-88
2021/05/02 14:59:15;;;;;;;2.20;1.20;;;;;;;19.02;55.43;102117.22;6316914;22;20006;-89
2021/05/02 15:01:41;;;;;;;2.83;1.00;;;;;;;19.07;54.74;102110.28;6290353;22;20497;-90
2021/05/02 15:04:06;;;;;;;2.83;1.10;;;;;;;19.05;54.70;102120.72;6290193;22;20018;-89
2021/05/02 15:06:32;;;;;;;3.63;0.90;;;;;;;19.02;54.22;102107.66;6291616;22;20010;-86
2021/05/02 15:08:57;;;;;;;2.22;0.95;;;;;;;19.04;54.59;102118.97;6314552;22;20002;-86
2021/05/02 15:11:23;;;;;;;2.55;0.90;;;;;;;18.98;55.59;102118.94;6289750;22;20011;-89
2021/05/02 15:13:48;;;;;;;2.47;1.10;;;;;;;19.00;54.70;102114.59;6292120;22;20345;-90
2021/05/02 15:19:36;;;;;;;2.42;1.13;;;;;;;18.87;54.56;102125.84;6345048;22;20072;-89
2021/05/02 15:22:02;;;;;;;2.20;1.05;;;;;;;18.83;53.20;102119.72;6316534;22;19999;-89
2021/05/02 15:24:29;;;;;;;3.15;0.90;;;;;;;18.79;53.29;102115.38;6318707;22;20036;-89
2021/05/02 15:26:54;;;;;;;2.00;1.00;;;;;;;18.83;54.05;102127.53;6318444;22;19995;-88
2021/05/02 15:29:20;;;;;;;1.48;0.93;;;;;;;18.85;53.57;102120.59;6329854;22;20007;-90
2021/05/02 15:31:47;;;;;;;1.60;0.90;;;;;;;18.88;54.21;102127.59;6299857;22;20059;-88
2021/05/02 15:34:12;;;;;;;2.15;1.00;;;;;;;18.94;54.32;102124.13;6282409;22;20002;-86
2021/05/02 15:36:38;;;;;;;2.35;1.00;;;;;;;18.96;54.66;102128.47;6282961;22;20012;-89
2021/05/02 15:39:07;;;;;;;1.88;0.98;;;;;;;18.91;55.05;102128.47;6259346;22;20008;-88
2021/05/02 15:41:38;;;;;;;2.45;1.17;;;;;;;18.87;53.80;102120.63;6240716;22;20004;-88
2021/05/02 15:47:26;;;;;;;2.42;1.00;;;;;;;18.94;54.29;102127.59;6289038;22;20022;-88
2021/05/02 15:49:52;;;;;;;2.45;0.80;;;;;;;18.93;55.05;102136.31;6262622;22;19996;-86
2021/05/02 15:52:17;;;;;;;1.52;1.00;;;;;;;18.86;54.23;102134.53;6237189;22;20059;-88
2021/05/02 15:54:46;;;;;;;1.83;1.00;;;;;;;18.84;54.03;102136.25;6258553;22;20004;-89
2021/05/02 15:57:30;;;;;;;1.75;0.90;;;;;;;18.80;55.18;102137.09;6231882;22;20474;-88
2021/05/02 15:59:57;;;;;;;1.75;0.93;;;;;;;18.80;53.89;102129.28;6237578;22;20008;-86
2021/05/02 16:02:24;;;;;;;1.35;0.90;;;;;;;18.75;54.17;102136.16;6288302;22;20046;-89
2021/05/02 16:04:49;;;;;;;2.17;1.17;;;;;;;18.81;55.01;102138.84;6258666;22;20007;-89
2021/05/02 16:07:15;;;;;;;1.75;0.80;;;;;;;18.71;52.63;102133.53;6258032;22;19995;-89
2021/05/02 16:09:42;;;;;;;2.60;0.98;;;;;;;18.76;53.40;102143.13;6235986;22;20007;-88
2021/05/02 16:12:08;;;;;;;0.82;0.73;;;;;;;18.82;55.38;102135.38;6234922;22;20057;-87
2021/05/02 16:14:33;;;;;;;1.98;0.90;;;;;;;18.85;54.39;102128.44;6237834;22;20085;-88
2021/05/02 16:16:59;;;;;;;2.80;1.08;;;;;;;18.93;54.91;102133.69;6264272;22;20000;-87
2021/05/02 16:19:24;;;;;;;1.10;0.80;;;;;;;18.99;54.20;102136.34;6236321;22;20105;-89
2021/05/02 16:22:01;;;;;;;2.65;1.20;;;;;;;18.95;53.39;102136.31;6257555;22;20007;-88
2021/05/02 16:24:26;;;;;;;1.77;0.90;;;;;;;18.94;55.02;102132.81;6237036;22;20016;-89
2021/05/02 16:26:52;;;;;;;1.48;0.90;;;;;;;18.97;54.76;102122.41;6235968;22;20080;-87
2021/05/02 16:29:18;;;;;;;1.52;0.80;;;;;;;18.96;53.21;102131.09;6287733;22;19999;-88
2021/05/02 16:31:44;;;;;;;1.40;0.82;;;;;;;18.98;54.45;102121.53;6286649;22;20026;-89
2021/05/02 16:34:12;;;;;;;3.63;1.08;;;;;;;18.95;54.97;102126.75;6257402;22;20031;-89
2021/05/02 16:36:37;;;;;;;1.70;1.02;;;;;;;18.95;53.95;102129.38;6266679;22;20019;-88
2021/05/02 16:39:04;;;;;;;1.70;1.10;;;;;;;18.99;54.02;102125.91;6292231;22;20014;-87
2021/05/02 16:41:30;;;;;;;2.08;0.80;;;;;;;19.02;54.25;102123.31;6289999;22;20094;-87
2021/05/02 16:43:55;;;;;;;1.90;0.90;;;;;;;18.98;54.02;102125.91;6290019;22;20308;-87
2021/05/02 16:46:21;;;;;;;2.95;0.90;;;;;;;18.99;54.75;102119.78;6264266;22;20015;-87
2021/05/02 16:48:47;;;;;;;2.58;1.00;;;;;;;18.97;54.83;102122.41;6291483;22;20007;-86
2021/05/02 16:51:13;;;;;;;3.05;0.80;;;;;;;18.95;54.27;102133.72;6321633;22;20003;-86
2021/05/02 16:53:43;;;;;;;2.78;1.17;;;;;;;18.90;54.21;102131.06;6268753;22;20003;-86
2021/05/02 16:56:08;;;;;;;4.22;1.25;;;;;;;18.86;54.72;102118.88;6304861;22;20015;-88
2021/05/02 16:58:33;;;;;;;6.32;1.30;;;;;;;18.82;53.15;102122.34;6268487;22;20088;-85
2021/05/02 17:00:59;;;;;;;1.63;1.00;;;;;;;18.85;54.73;102117.13;6300211;22;20534;-89
2021/05/02 17:03:44;;;;;;;2.13;1.10;;;;;;;18.89;54.79;102124.97;6325582;22;20015;-86
2021/05/02 17:06:09;;;;;;;4.25;1.02;;;;;;;18.87;54.97;102115.41;6297474;22;20118;-87
2021/05/02 17:08:37;;;;;;;13.07;2.50;;;;;;;18.88;57.16;102120.63;6326109;22;20521;-87
2021/05/02 17:11:05;;;;;;;13.65;2.25;;;;;;;18.88;56.56;102118.03;6323261;22;20015;-86
2021/05/02 17:13:33;;;;;;;5.82;1.70;;;;;;;18.89;58.13;102113.69;6328387;22;20046;-87
2021/05/02 17:16:41;;;;;;;7.93;1.98;;;;;;;18.97;58.12;102117.19;6321699;22;20022;-89
2021/05/02 17:25:34;;;;;;;7.25;1.25;;;;;;;18.86;54.98;102113.66;6331350;22;20030;-86
2021/05/02 17:31:40;;;;;;;3.88;1.20;;;;;;;18.91;54.46;102120.63;6359417;22;20387;-87
2021/05/02 17:34:07;;;;;;;3.33;1.40;;;;;;;18.89;55.12;102119.75;6358125;22;20070;-88
2021/05/02 17:36:32;;;;;;;5.45;1.60;;;;;;;18.84;53.95;102120.63;6303836;22;20015;-88
2021/05/02 17:38:58;;;;;;;9.60;3.53;;;;;;;18.79;56.08;102117.09;6299785;22;20042;-87
2021/05/02 17:41:23;;;;;;;5.90;2.70;;;;;;;18.79;54.93;102111.88;6303329;22;20070;-86
2021/05/02 17:43:48;;;;;;;4.75;2.30;;;;;;;18.82;55.45;102115.38;6354696;22;19998;-87
2021/05/02 17:46:14;;;;;;;6.43;2.15;;;;;;;18.85;55.52;102125.81;6301797;22;20093;-87
2021/05/02 17:48:40;;;;;;;8.98;2.70;;;;;;;18.83;55.20;102121.47;6328337;22;20010;-86
2021/05/02 17:51:08;;;;;;;8.70;2.38;;;;;;;18.86;55.63;102126.72;6299572;22;20062;-87
2021/05/02 17:53:37;;;;;;;7.63;2.28;;;;;;;18.92;55.61;102118.91;6322539;22;20010;-87
2021/05/02 17:56:03;;;;;;;6.38;1.88;;;;;;;18.89;56.11;102126.72;6326167;22;20002;-88
2021/05/02 17:58:28;;;;;;;5.13;2.00;;;;;;;18.88;56.27;102127.59;6356264;22;20005;-88
2021/05/02 18:01:14;;;;;;;6.75;1.85;;;;;;;18.80;55.26;102119.72;6298072;22;20030;-88
2021/05/02 18:07:19;;;;;;;5.78;1.67;;;;;;;18.78;55.82;102128.41;6379186;22;20028;-88
2021/05/02 18:09:44;;;;;;;4.82;1.63;;;;;;;18.82;55.50;102133.63;6388191;22;20006;-88
2021/05/02 18:12:12;;;;;;;3.55;1.73;;;;;;;18.79;55.80;102117.97;6305294;22;20029;-87
2021/05/02 18:14:38;;;;;;;5.00;1.83;;;;;;;18.81;55.74;102125.78;6363504;22;20516;-89
2021/05/02 18:17:03;;;;;;;2.83;1.45;;;;;;;18.76;55.56;102130.94;6340712;22;20002;-86
2021/05/02 18:19:29;;;;;;;3.35;1.55;;;;;;;18.74;55.77;102127.47;6346429;22;19994;-88
2021/05/02 19:17:10;;;;;;;2.03;1.08;;;;;;;18.59;55.21;102169.94;6382580;22;20036;-88
2021/05/02 19:27:14;;;;;;;5.70;1.60;;;;;;;18.62;55.34;102184.75;6374278;22;20086;-82
2021/05/02 19:29:39;;;;;;;5.70;1.65;;;;;;;18.59;55.23;102185.59;6360117;22;20014;-80
2021/05/02 19:32:06;;;;;;;9.38;1.42;;;;;;;18.59;55.29;102184.72;6335937;22;20018;-79
2021/05/02 19:34:32;;;;;;;7.55;1.30;;;;;;;18.59;54.81;102179.50;6310156;22;20075;-82
2021/05/02 19:36:57;;;;;;;10.93;1.40;;;;;;;18.47;55.04;102178.56;6386688;22;20002;-86
2021/05/02 19:39:23;;;;;;;3.60;1.17;;;;;;;18.53;55.17;102193.38;6385923;22;20017;-86
2021/05/02 19:41:48;;;;;;;5.45;1.50;;;;;;;18.53;55.25;102185.56;6332093;22;20018;-79
2021/05/02 19:44:15;;;;;;;13.55;1.50;;;;;;;18.57;55.05;102191.66;6332857;22;20007;-83
2021/05/02 19:46:40;;;;;;;8.52;1.90;;;;;;;18.57;55.17;102199.47;6300365;22;20003;-82
2021/05/02 19:49:08;;;;;;;8.38;1.75;;;;;;;18.54;54.69;102199.47;6303323;22;19998;-81
2021/05/02 19:51:41;;;;;;;8.38;1.63;;;;;;;18.53;55.14;102198.59;6357399;22;20006;-80
2021/05/02 19:54:06;;;;;;;4.53;1.40;;;;;;;18.50;54.60;102194.22;6360683;22;20002;-82
2021/05/02 19:56:33;;;;;;;5.82;1.50;;;;;;;18.53;54.74;102196.00;6332526;22;20006;-80
2021/05/02 19:58:58;;;;;;;4.93;1.52;;;;;;;18.52;54.84;102195.97;6333220;22;20014;-82
2021/05/02 20:01:27;;;;;;;3.42;1.27;;;;;;;18.48;54.49;102193.31;6384820;22;20002;-80
2021/05/02 20:03:52;;;;;;;4.75;1.38;;;;;;;18.48;54.36;102195.06;6355685;22;20026;-87
2021/05/02 20:06:18;;;;;;;4.55;1.48;;;;;;;18.49;54.74;102202.91;6330618;22;20011;-81
2021/05/02 20:08:43;;;;;;;6.22;1.30;;;;;;;18.49;55.19;102202.03;6380117;22;20018;-80
2021/05/02 20:11:13;;;;;;;7.10;1.40;;;;;;;18.51;54.67;102205.53;6334257;22;20006;-80
2021/05/02 20:13:40;;;;;;;6.82;1.45;;;;;;;18.47;54.88;102198.53;6359344;22;20009;-80
2021/05/02 20:16:06;;;;;;;4.20;1.25;;;;;;;18.45;54.87;102202.88;6385202;22;20007;-82
2021/05/02 20:18:32;;;;;;;5.18;1.65;;;;;;;18.45;54.28;102203.72;6356310;22;20002;-80
2021/05/02 20:20:58;;;;;;;4.38;1.40;;;;;;;18.45;54.44;102203.72;6329611;22;20022;-80
2021/05/02 20:23:24;;;;;;;2.58;1.25;;;;;;;18.44;53.47;102198.50;6323612;22;20007;-79
2021/05/02 20:25:49;;;;;;;3.33;1.20;;;;;;;18.43;54.63;102201.97;6318468;22;20011;-80
2021/05/02 20:30:45;;;;;;;3.47;1.40;;;;;;;18.46;54.41;102197.66;6349886;22;20022;-80
2021/05/02 20:33:12;;;;;;;4.20;1.40;;;;;;;18.44;54.68;102199.41;6321483;22;20491;-79
2021/05/02 20:35:39;;;;;;;2.70;1.02;;;;;;;18.44;54.00;102195.88;6320619;22;20002;-80
2021/05/02 20:38:04;;;;;;;4.40;1.10;;;;;;;18.46;54.52;102191.56;6321725;22;20056;-84
2021/05/02 20:40:30;;;;;;;4.13;1.20;;;;;;;18.43;54.21;102200.25;6299069;22;20346;-84
2021/05/02 20:42:57;;;;;;;6.38;1.40;;;;;;;18.41;54.01;102188.06;6272968;22;20018;-81
2021/05/02 20:45:23;;;;;;;3.17;1.13;;;;;;;18.41;54.35;102190.66;6352931;22;20011;-84
2021/05/02 20:47:53;;;;;;;7.72;1.33;;;;;;;18.42;54.25;102193.28;6352538;22;20075;-84
2021/05/02 20:50:30;;;;;;;5.22;1.30;;;;;;;18.41;54.13;102191.53;6327177;22;20032;-81
2021/05/02 20:53:00;;;;;;;3.45;1.08;;;;;;;18.41;53.61;102193.28;6329507;22;20009;-90
2021/05/02 20:55:26;;;;;;;3.65;1.10;;;;;;;18.41;53.86;102196.75;6305550;22;20017;-82
2021/05/02 20:57:53;;;;;;;3.85;1.08;;;;;;;18.38;53.92;102188.00;6312319;22;20058;-87
2021/05/02 21:03:53;;;;;;;1.83;0.80;;;;;;;18.39;54.16;102189.78;6354794;22;20439;-88
2021/05/02 21:06:19;;;;;;;2.20;1.10;;;;;;;18.38;54.25;102199.34;6333236;22;20007;-87
2021/05/02 21:08:44;;;;;;;2.70;1.30;;;;;;;18.41;54.00;102199.34;6334888;22;20024;-82
2021/05/02 21:11:10;;;;;;;2.97;1.17;;;;;;;18.41;53.88;102196.75;6336221;22;20002;-85
2021/05/02 21:13:35;;;;;;;2.28;0.90;;;;;;;18.40;53.94;102191.50;6342228;22;20023;-84
2021/05/02 21:16:01;;;;;;;9.05;1.48;;;;;;;18.41;53.61;102198.47;6333194;22;20054;-84
2021/05/02 21:18:27;;;;;;;1.45;0.85;;;;;;;18.41;53.75;102201.09;6332620;22;20011;-82
2021/05/02 21:21:00;;;;;;;3.33;0.90;;;;;;;18.42;53.39;102202.81;6361452;22;20003;-84
2021/05/02 21:23:32;;;;;;;1.63;1.10;;;;;;;18.41;53.86;102188.06;6364022;22;20003;-83
2021/05/02 21:25:57;;;;;;;5.78;1.15;;;;;;;18.40;53.68;102192.41;6363294;22;20037;-85
2021/05/02 21:28:31;;;;;;;2.13;1.10;;;;;;;18.42;53.69;102192.41;6391219;22;20008;-79
2021/05/02 21:30:56;;;;;;;2.25;1.02;;;;;;;18.39;53.95;102192.38;6391617;22;20003;-79
2021/05/02 21:33:22;;;;;;;2.58;1.13;;;;;;;18.38;53.22;102193.22;6389510;22;20055;-80
2021/05/02 21:35:47;;;;;;;2.47;1.15;;;;;;;18.41;53.24;102194.13;6387900;22;20017;-85
2021/05/02 21:38:13;;;;;;;1.80;0.80;;;;;;;18.33;52.78;102190.59;6388418;22;20032;-79
2021/05/02 21:40:39;;;;;;;2.63;0.93;;;;;;;18.26;53.25;102187.06;6390514;22;20002;-80
2021/05/02 21:46:27;;;;;;;2.00;0.90;;;;;;;18.00;53.12;102181.59;6393418;22;20020;-80
2021/05/02 21:48:52;;;;;;;2.45;1.20;;;;;;;17.97;52.96;102176.38;6388868;22;20330;-79
2021/05/02 21:51:18;;;;;;;2.60;0.95;;;;;;;17.91;53.08;102181.50;6387436;22;20022;-82
2021/05/02 21:53:47;;;;;;;2.65;0.95;;;;;;;17.87;52.94;102180.59;6389666;22;20048;-81
2021/05/02 21:56:18;;;;;;;1.40;0.98;;;;;;;17.87;52.82;102172.78;6390885;22;20022;-79
2021/05/02 21:58:46;;;;;;;2.17;1.10;;;;;;;17.89;52.91;102183.22;6390920;22;19999;-79
2021/05/02 22:04:43;;;;;;;2.22;0.93;;;;;;;17.83;52.85;102180.53;6392573;22;20048;-79
2021/05/02 22:07:11;;;;;;;2.75;1.00;;;;;;;17.82;52.45;102178.81;6391619;22;20002;-78
2021/05/02 22:09:38;;;;;;;2.95;0.82;;;;;;;17.76;52.38;102174.38;6391591;22;20015;-80
2021/05/02 22:12:04;;;;;;;2.00;1.08;;;;;;;17.80;52.51;102180.50;6391106;22;20029;-79
2021/05/02 22:14:30;;;;;;;1.83;0.90;;;;;;;17.78;52.63;102177.00;6390241;22;20016;-80
2021/05/02 22:16:55;;;;;;;2.35;1.00;;;;;;;17.76;52.36;102178.69;6392854;22;20015;-80
2021/05/02 22:19:20;;;;;;;1.80;1.10;;;;;;;17.77;52.77;102177.84;6365244;22;20002;-79
2021/05/02 22:21:46;;;;;;;3.67;1.10;;;;;;;17.77;52.91;102177.84;6390421;22;20035;-79
2021/05/02 22:24:13;;;;;;;2.90;1.33;;;;;;;17.75;52.39;102177.84;6364811;22;20018;-79
2021/05/02 22:26:39;;;;;;;1.98;0.98;;;;;;;17.75;52.90;102174.38;6365250;22;20007;-79
2021/05/02 22:29:04;;;;;;;2.95;1.10;;;;;;;17.77;52.65;102183.03;6363549;22;20002;-81
2021/05/02 22:31:32;;;;;;;1.88;1.20;;;;;;;17.72;52.69;102166.50;6363139;22;20028;-78
2021/05/02 22:33:57;;;;;;;3.28;1.30;;;;;;;17.73;52.56;102174.34;6351714;22;20042;-80
2021/05/02 22:36:22;;;;;;;3.17;1.40;;;;;;;17.72;52.55;102169.97;6327329;22;20011;-79
2021/05/02 22:38:48;;;;;;;2.88;1.30;;;;;;;17.71;52.26;102170.84;6301514;22;20013;-79
2021/05/02 22:41:14;;;;;;;1.98;1.27;;;;;;;17.71;52.40;102167.38;6327271;22;20011;-79
2021/05/02 22:43:41;;;;;;;4.18;1.30;;;;;;;17.71;52.47;102169.97;6329023;22;20026;-79
2021/05/02 22:46:07;;;;;;;1.90;1.50;;;;;;;17.67;52.63;102167.31;6327196;22;20011;-79
2021/05/02 22:48:34;;;;;;;1.98;1.17;;;;;;;17.69;52.15;102172.56;6328303;22;19989;-82
2021/05/02 22:51:00;;;;;;;2.78;1.20;;;;;;;17.66;52.19;102176.00;6289002;22;20049;-80
2021/05/02 22:53:26;;;;;;;4.40;1.30;;;;;;;17.64;52.30;102175.13;6310007;22;20034;-83
2021/05/02 22:58:26;;;;;;;2.00;1.25;;;;;;;17.64;52.76;102177.72;6362619;22;20014;-83
2021/05/02 23:01:05;;;;;;;2.38;1.35;;;;;;;17.64;52.35;102175.13;6309416;22;20010;-87
2021/05/02 23:03:31;;;;;;;2.33;1.30;;;;;;;17.62;52.29;102173.34;6335586;22;20036;-79
2021/05/02 23:08:28;;;;;;;3.17;1.40;;;;;;;17.63;52.48;102175.94;6329621;22;20025;-78
2021/05/02 23:10:53;;;;;;;2.67;1.40;;;;;;;17.63;52.45;102164.66;6277925;22;20011;-79
2021/05/02 23:13:20;;;;;;;3.10;1.40;;;;;;;17.63;52.22;102168.13;6326496;22;20078;-78
2021/05/02 23:15:46;;;;;;;2.88;1.30;;;;;;;17.66;52.45;102167.31;6300589;22;20026;-79
2021/05/02 23:18:12;;;;;;;3.85;1.55;;;;;;;17.64;52.33;102164.69;6326654;22;20067;-79
2021/05/02 23:20:37;;;;;;;2.55;1.20;;;;;;;17.65;52.21;102166.44;6325836;22;20009;-79
2021/05/02 23:23:04;;;;;;;2.10;1.23;;;;;;;17.64;52.31;102166.44;6330763;22;20003;-79
2021/05/02 23:25:30;;;;;;;2.70;1.33;;;;;;;17.60;52.26;102164.66;6357616;22;20014;-79
2021/05/02 23:30:21;;;;;;;2.53;1.25;;;;;;;17.61;52.19;102172.44;6364453;22;20019;-79
2021/05/02 23:32:46;;;;;;;3.65;1.45;;;;;;;17.61;52.16;102166.38;6341069;22;20010;-79
2021/05/02 23:35:12;;;;;;;2.45;1.50;;;;;;;17.60;51.93;102167.25;6281627;22;20023;-78
2021/05/02 23:37:38;;;;;;;2.22;1.30;;;;;;;17.59;51.96;102165.50;6339974;22;20341;-79
2021/05/02 23:40:06;;;;;;;2.58;1.50;;;;;;;17.60;52.24;102162.03;6363805;22;20011;-78
2021/05/02 23:42:32;;;;;;;2.15;1.20;;;;;;;17.58;52.12;102162.03;6361032;22;19994;-79
2021/05/02 23:44:57;;;;;;;2.17;1.20;;;;;;;17.57;52.12;102162.91;6362102;22;20060;-79
2021/05/02 23:47:23;;;;;;;2.60;1.40;;;;;;;17.58;51.88;102161.16;6359422;22;19998;-79
2021/05/02 23:49:50;;;;;;;2.28;1.25;;;;;;;17.60;51.96;102160.31;6332281;22;20345;-79
2021/05/02 23:52:15;;;;;;;2.00;1.20;;;;;;;17.56;52.03;102157.66;6329671;22;20007;-78
2021/05/02 23:54:40;;;;;;;3.05;1.45;;;;;;;17.56;51.64;102158.53;6326231;22;20026;-78
2021/05/02 23:57:06;;;;;;;1.73;1.20;;;;;;;17.59;51.85;102160.28;6237349;22;20000;-78
2021/05/02 23:59:31;;;;;;;3.53;1.50;;;;;;;17.57;52.17;102155.09;6266046;22;20003;-79
